Time;durP1;ratioP1;P1;durP2;ratioP2;P2;SDS_P1;SDS_P2;PMS_P1;PMS_P2;Temp;Humidity;BMP_temperature;BMP_pressure;BME280_temperature;BME280_humidity;BME280_pressure;Samples;Min_cycle;Max_cycle;Signal;HPM_P1;HPM_P2
2022/09/07 00:00:54;;;;;;;7.72;4.38;;;;;;;19.11;100.00;98490.69;5023088;28;20340;-60
2022/09/07 00:03:20;;;;;;;9.40;4.88;;;;;;;19.35;100.00;98523.53;5011106;28;20029;-61
2022/09/07 00:05:46;;;;;;;8.77;4.78;;;;;;;19.35;100.00;98526.19;4999448;28;20034;-59
2022/09/07 00:08:13;;;;;;;6.85;4.47;;;;;;;19.34;100.00;98526.38;4993068;28;20033;-61
2022/09/07 00:10:39;;;;;;;7.25;4.47;;;;;;;19.38;100.00;98512.59;5009054;28;20034;-59
2022/09/07 00:13:05;;;;;;;7.57;4.90;;;;;;;19.42;100.00;98520.06;5013969;28;20103;-63
2022/09/07 00:15:31;;;;;;;7.95;4.65;;;;;;;19.33;100.00;98501.84;5009236;28;20034;-61
2022/09/07 00:17:56;;;;;;;6.68;4.35;;;;;;;19.44;100.00;98518.88;5014728;28;20076;-61
2022/09/07 00:20:22;;;;;;;6.75;4.35;;;;;;;19.38;100.00;98525.78;4957768;28;20037;-60
2022/09/07 00:22:47;;;;;;;6.90;4.10;;;;;;;19.43;100.00;98530.44;5009984;28;20129;-60
2022/09/07 00:25:13;;;;;;;6.72;4.20;;;;;;;19.49;100.00;98524.31;5008377;28;20029;-62
2022/09/07 00:27:38;;;;;;;7.43;3.80;;;;;;;19.49;100.00;98528.78;5002444;28;20570;-60
2022/09/07 00:30:05;;;;;;;8.63;4.32;;;;;;;19.48;100.00;98538.53;5016174;28;20513;-60
2022/09/07 00:32:30;;;;;;;5.45;3.60;;;;;;;19.51;100.00;98532.88;5004768;28;20045;-60
2022/09/07 00:34:55;;;;;;;7.18;3.50;;;;;;;19.44;100.00;98541.78;4994892;28;20026;-62
2022/09/07 00:37:21;;;;;;;5.80;3.33;;;;;;;19.45;100.00;98546.03;5005376;28;20021;-63
2022/09/07 00:39:47;;;;;;;7.15;3.60;;;;;;;19.37;100.00;98547.88;4995969;28;20029;-62
2022/09/07 00:42:12;;;;;;;7.35;3.80;;;;;;;19.36;100.00;98543.59;5010507;28;20369;-62
2022/09/07 00:44:41;;;;;;;7.10;3.47;;;;;;;19.34;100.00;98523.75;5015885;28;20092;-62
2022/09/07 00:47:10;;;;;;;7.28;3.53;;;;;;;19.37;100.00;98537.31;5016151;28;20076;-62
2022/09/07 00:49:36;;;;;;;5.60;3.25;;;;;;;19.40;100.00;98529.03;5002887;28;20025;-62
2022/09/07 00:52:04;;;;;;;7.97;2.92;;;;;;;19.45;100.00;98546.03;5014391;28;20037;-59
2022/09/07 00:54:33;;;;;;;6.35;2.90;;;;;;;19.51;100.00;98553.13;4995421;28;20532;-62
2022/09/07 00:56:58;;;;;;;5.50;2.92;;;;;;;19.50;100.00;98549.69;4987871;28;20053;-63
2022/09/07 00:59:28;;;;;;;6.50;2.85;;;;;;;19.53;100.00;98551.94;5007851;28;20204;-61
2022/09/07 01:01:53;;;;;;;6.10;2.78;;;;;;;19.57;100.00;98542.59;5014710;28;20100;-59
2022/09/07 01:04:20;;;;;;;6.38;2.53;;;;;;;19.49;100.00;98544.63;5005654;28;20033;-62
2022/09/07 01:06:46;;;;;;;7.57;2.58;;;;;;;19.45;100.00;98541.56;5012883;28;20036;-62
2022/09/07 01:09:16;;;;;;;7.07;2.90;;;;;;;19.48;100.00;98548.28;5009724;28;20033;-60
2022/09/07 01:11:49;;;;;;;6.35;2.80;;;;;;;19.46;100.00;98552.91;4992080;28;20128;-61
2022/09/07 01:14:16;;;;;;;7.78;2.92;;;;;;;19.43;100.00;98546.25;4998013;28;20037;-62
2022/09/07 01:16:45;;;;;;;5.45;2.95;;;;;;;19.46;100.00;98552.91;4988440;28;20049;-60
2022/09/07 01:19:22;;;;;;;7.30;2.88;;;;;;;19.28;100.00;98522.72;5011902;28;20033;-59
2022/09/07 01:21:51;;;;;;;6.45;2.63;;;;;;;19.51;100.00;98534.66;5016720;28;20038;-59
2022/09/07 01:24:31;;;;;;;7.37;2.73;;;;;;;19.40;100.00;98533.47;5003972;28;20037;-59
2022/09/07 01:27:21;;;;;;;6.55;3.10;;;;;;;19.38;100.00;98535.50;5014864;28;20275;-62
2022/09/07 01:30:01;;;;;;;6.32;2.60;;;;;;;19.36;100.00;98534.88;5011292;28;20036;-62
2022/09/07 01:32:46;;;;;;;7.38;2.63;;;;;;;19.37;100.00;98528.63;5005610;28;20056;-61
2022/09/07 01:35:52;;;;;;;7.80;2.67;;;;;;;19.47;100.00;98521.09;5006804;28;20897;-60
2022/09/07 01:39:03;;;;;;;6.35;2.80;;;;;;;19.48;100.00;98525.34;4975389;28;20037;-61
2022/09/07 01:41:38;;;;;;;5.57;3.10;;;;;;;19.37;100.00;98503.06;4996437;28;20038;-61
2022/09/07 01:44:11;;;;;;;5.78;2.85;;;;;;;19.19;100.00;98473.88;5025370;28;20519;-63
2022/09/07 01:47:01;;;;;;;7.65;2.80;;;;;;;19.42;99.80;98509.53;5010633;28;20582;-64
2022/09/07 01:49:31;;;;;;;5.60;2.63;;;;;;;19.45;99.65;98496.75;5000430;28;20102;-61
2022/09/07 01:52:00;;;;;;;5.70;2.58;;;;;;;19.45;98.89;98512.56;5008731;28;20058;-63
2022/09/07 01:54:28;;;;;;;9.48;3.58;;;;;;;19.32;100.00;98510.75;5015284;28;20492;-61
2022/09/07 01:56:57;;;;;;;7.10;3.08;;;;;;;19.27;100.00;98507.09;4962902;28;20457;-64
2022/09/07 01:59:30;;;;;;;6.97;2.93;;;;;;;19.32;100.00;98496.78;5008573;28;20022;-62
2022/09/07 02:02:03;;;;;;;5.15;2.80;;;;;;;19.36;100.00;98488.22;5015711;28;20268;-62
2022/09/07 02:04:56;;;;;;;6.15;2.55;;;;;;;19.35;100.00;98489.28;4996425;28;20515;-62
2022/09/07 02:07:26;;;;;;;5.30;2.75;;;;;;;19.33;100.00;98488.66;5007285;28;20056;-63
2022/09/07 02:09:59;;;;;;;7.95;3.17;;;;;;;19.17;100.00;98465.34;5003886;28;20497;-63
2022/09/07 02:13:05;;;;;;;7.07;3.25;;;;;;;19.42;100.00;98489.25;5024440;28;20025;-63
2022/09/07 02:16:17;;;;;;;5.70;2.88;;;;;;;19.38;100.00;98483.59;5006614;28;20036;-64
2022/09/07 02:18:46;;;;;;;5.20;3.15;;;;;;;19.38;100.00;98480.97;5006153;28;20068;-62
2022/09/07 02:21:14;;;;;;;7.03;2.95;;;;;;;19.21;100.00;98456.81;5012927;28;20128;-61
2022/09/07 02:23:45;;;;;;;7.03;3.08;;;;;;;19.36;100.00;98488.22;4998681;28;20472;-62
2022/09/07 02:26:21;;;;;;;6.35;2.90;;;;;;;19.39;100.00;98479.94;5028844;28;20542;-62
2022/09/07 02:28:47;;;;;;;7.35;2.97;;;;;;;19.42;100.00;98477.91;4998892;28;20026;-62
2022/09/07 02:31:13;;;;;;;6.95;3.40;;;;;;;19.27;100.00;98462.31;5014306;28;20040;-63
2022/09/07 02:33:38;;;;;;;5.65;3.05;;;;;;;19.48;100.00;98492.91;4994829;28;20033;-60
2022/09/07 02:36:04;;;;;;;7.60;3.22;;;;;;;19.49;100.00;98500.59;4927370;28;20032;-61
2022/09/07 02:38:31;;;;;;;6.38;3.05;;;;;;;19.45;100.00;98496.75;4995924;28;20121;-61
2022/09/07 02:40:58;;;;;;;8.13;3.63;;;;;;;19.42;100.00;98491.06;5003749;28;20036;-61
2022/09/07 02:43:24;;;;;;;5.68;3.10;;;;;;;19.43;100.00;98492.72;4998064;28;20021;-60
2022/09/07 02:46:08;;;;;;;7.20;3.33;;;;;;;19.46;100.00;98493.13;4994547;28;20040;-62
2022/09/07 02:48:43;;;;;;;6.68;3.13;;;;;;;19.42;100.00;98491.88;5004332;28;20033;-61
2022/09/07 02:51:41;;;;;;;5.95;3.35;;;;;;;19.44;100.00;98486.41;5005788;28;20068;-60
2022/09/07 02:54:27;;;;;;;8.40;3.60;;;;;;;19.49;100.00;98491.88;4998090;28;20042;-60
2022/09/07 02:57:14;;;;;;;6.28;3.30;;;;;;;19.55;100.00;98485.81;5013038;28;20610;-61
2022/09/07 02:59:48;;;;;;;6.60;3.60;;;;;;;19.50;100.00;98486.41;5018565;28;20120;-64
2022/09/07 03:02:28;;;;;;;6.85;3.63;;;;;;;19.55;100.00;98488.44;5021040;28;20046;-60
2022/09/07 03:04:53;;;;;;;5.45;3.40;;;;;;;19.52;100.00;98487.00;5014537;28;20041;-59
2022/09/07 03:07:23;;;;;;;6.15;3.63;;;;;;;19.54;100.00;98492.09;5012680;28;20036;-62
2022/09/07 03:09:49;;;;;;;;;;;;;;;19.62;100.00;98502.41;5012040;28;20029;-63
2022/09/07 03:12:15;;;;;;;9.60;3.60;;;;;;;19.57;100.00;98491.69;4994259;28;19917;-62
2022/09/07 03:14:41;;;;;;;7.40;3.30;;;;;;;19.55;100.00;98497.16;5006314;28;20030;-60
2022/09/07 03:17:07;;;;;;;7.53;3.70;;;;;;;19.59;100.00;98493.09;5022723;28;20041;-62
2022/09/07 03:19:33;;;;;;;7.35;3.40;;;;;;;19.55;100.00;98481.34;5018915;28;20034;-61
2022/09/07 03:21:58;;;;;;;6.72;3.03;;;;;;;19.65;100.00;98490.66;5024136;28;20502;-61
2022/09/07 03:24:24;;;;;;;5.50;3.08;;;;;;;19.58;99.65;98472.19;5002435;28;20042;-60
2022/09/07 03:26:50;;;;;;;5.88;3.28;;;;;;;19.64;100.00;98503.03;5012243;28;20057;-62
2022/09/07 03:29:17;;;;;;;6.78;3.63;;;;;;;19.63;100.00;98497.94;5004367;28;20041;-62
2022/09/07 03:31:42;;;;;;;8.80;3.53;;;;;;;19.59;100.00;98492.28;5018397;28;20057;-61
2022/09/07 03:34:08;;;;;;;8.45;3.72;;;;;;;19.51;100.00;98487.22;4998096;28;20033;-61
2022/09/07 03:36:34;;;;;;;5.90;3.42;;;;;;;19.37;100.00;98476.69;5010513;28;20083;-63
2022/09/07 03:39:00;;;;;;;6.85;3.70;;;;;;;19.45;100.00;98490.69;5047063;28;20034;-63
2022/09/07 03:41:26;;;;;;;5.88;3.65;;;;;;;19.42;100.00;98477.91;5012121;28;20038;-63
2022/09/07 03:43:52;;;;;;;8.68;3.58;;;;;;;19.42;100.00;98475.25;5029212;28;20053;-64
2022/09/07 03:46:18;;;;;;;5.85;3.53;;;;;;;19.18;100.00;98441.44;5011150;28;20053;-60
2022/09/07 03:48:45;;;;;;;7.25;3.60;;;;;;;19.37;100.00;98475.88;5000645;28;20048;-60
2022/09/07 03:51:11;;;;;;;6.53;3.63;;;;;;;19.39;100.00;98464.09;4999501;28;20121;-59
2022/09/07 03:53:39;;;;;;;6.03;3.80;;;;;;;19.24;100.00;98434.53;4957979;28;21013;-63
2022/09/07 03:56:08;;;;;;;7.43;3.92;;;;;;;19.45;100.00;98473.03;4991776;28;20029;-61
2022/09/07 03:58:34;;;;;;;7.43;4.05;;;;;;;19.33;100.00;98457.03;5016957;28;20037;-62
2022/09/07 04:01:06;;;;;;;6.00;3.80;;;;;;;19.41;100.00;98458.63;5013776;28;20033;-62
2022/09/07 04:03:32;;;;;;;12.07;4.10;;;;;;;19.38;100.00;98457.22;5016305;28;20030;-64
2022/09/07 04:05:58;;;;;;;5.35;3.45;;;;;;;19.13;100.00;98406.97;5027230;28;20032;-62
2022/09/07 04:08:33;;;;;;;8.18;3.80;;;;;;;19.34;100.00;98447.28;4998964;28;20572;-59
2022/09/07 04:11:00;;;;;;;8.70;4.50;;;;;;;19.42;100.00;98448.91;5014125;28;20030;-61
2022/09/07 04:13:27;;;;;;;6.13;3.88;;;;;;;19.39;100.00;98452.75;4956889;28;20095;-63
2022/09/07 04:15:53;;;;;;;6.57;3.78;;;;;;;19.37;100.00;98452.16;4992900;28;20037;-60
2022/09/07 04:18:18;;;;;;;6.45;3.50;;;;;;;19.38;100.00;98448.50;5016646;28;20041;-62
2022/09/07 04:20:44;;;;;;;5.38;3.47;;;;;;;19.39;100.00;98453.56;5001640;28;20022;-61
2022/09/07 04:23:10;;;;;;;7.43;4.00;;;;;;;19.43;100.00;98447.88;5009441;28;20025;-60
2022/09/07 04:25:35;;;;;;;5.88;3.88;;;;;;;19.27;100.00;98425.41;5016047;28;20026;-66
2022/09/07 04:28:01;;;;;;;8.40;3.88;;;;;;;19.33;100.00;98443.03;5007795;28;20452;-59
2022/09/07 04:30:26;;;;;;;7.10;3.63;;;;;;;19.05;100.00;98407.19;5009534;28;20030;-61
2022/09/07 04:32:52;;;;;;;7.60;3.47;;;;;;;19.25;100.00;98427.44;5010276;28;20061;-63
2022/09/07 04:35:17;;;;;;;9.20;4.35;;;;;;;19.32;100.00;98429.03;4926274;28;20115;-62
2022/09/07 04:37:43;;;;;;;6.47;3.83;;;;;;;19.29;100.00;98444.44;5011555;28;20164;-61
2022/09/07 04:40:09;;;;;;;7.50;4.10;;;;;;;19.23;100.00;98429.47;5012445;28;20049;-60
2022/09/07 04:42:34;;;;;;;7.60;3.65;;;;;;;19.32;100.00;98436.16;5008274;28;20030;-60
2022/09/07 04:45:00;;;;;;;9.88;3.97;;;;;;;19.33;100.00;98433.31;5021264;28;20087;-61
2022/09/07 04:47:25;;;;;;;8.50;3.88;;;;;;;19.37;100.00;98431.06;5017276;28;20492;-59
2022/09/07 04:49:51;;;;;;;7.57;3.88;;;;;;;19.32;100.00;98439.59;5015366;28;20040;-60
2022/09/07 04:52:17;;;;;;;6.95;3.45;;;;;;;19.37;100.00;98446.88;4997842;28;20042;-62
2022/09/07 04:54:43;;;;;;;8.65;3.60;;;;;;;19.39;100.00;98456.19;4990871;28;20033;-61
2022/09/07 04:57:10;;;;;;;5.40;3.78;;;;;;;19.27;100.00;98463.09;5010812;28;20029;-61
2022/09/07 04:59:35;;;;;;;7.85;4.00;;;;;;;19.30;100.00;98467.16;5004441;28;20044;-61
2022/09/07 05:02:01;;;;;;;7.85;4.05;;;;;;;19.31;100.00;98464.34;5019485;28;20033;-60
2022/09/07 05:04:26;;;;;;;5.85;3.70;;;;;;;19.33;100.00;98466.75;5008134;28;20306;-63
2022/09/07 05:06:53;;;;;;;8.57;4.20;;;;;;;19.37;100.00;98474.06;5037600;28;20610;-61
2022/09/07 05:09:18;;;;;;;5.70;3.60;;;;;;;19.37;100.00;98465.34;5001738;28;20124;-61
2022/09/07 05:11:44;;;;;;;13.23;4.82;;;;;;;19.30;100.00;98462.69;5010223;28;20589;-60
2022/09/07 05:14:10;;;;;;;6.90;4.03;;;;;;;19.26;100.00;98465.94;4937866;28;21794;-64
2022/09/07 05:16:35;;;;;;;7.10;4.28;;;;;;;19.30;100.00;98467.16;4995146;28;20033;-62
2022/09/07 05:19:03;;;;;;;9.30;4.28;;;;;;;19.36;100.00;98472.41;5013399;28;20131;-61
2022/09/07 05:21:31;;;;;;;8.02;4.32;;;;;;;19.40;100.00;98472.81;5024375;28;20041;-63
2022/09/07 05:23:58;;;;;;;7.07;4.70;;;;;;;19.34;100.00;98477.09;4988735;28;20038;-62
2022/09/07 05:26:27;;;;;;;7.30;4.15;;;;;;;19.32;100.00;98454.59;5028788;28;20367;-60
2022/09/07 05:28:53;;;;;;;6.93;4.03;;;;;;;19.41;100.00;98479.72;4994255;28;20116;-62
2022/09/07 05:31:20;;;;;;;7.25;3.90;;;;;;;19.43;100.00;98482.97;5006100;28;20284;-61
2022/09/07 05:33:51;;;;;;;7.18;4.05;;;;;;;19.47;100.00;98478.91;4946592;28;22923;-64
2022/09/07 05:36:16;;;;;;;6.88;4.18;;;;;;;19.49;100.00;98491.88;4988190;28;20036;-61
2022/09/07 05:38:42;;;;;;;5.85;3.72;;;;;;;19.46;100.00;98484.38;5007944;28;20029;-62
2022/09/07 05:41:17;;;;;;;8.48;4.40;;;;;;;19.54;100.00;98481.53;5002141;28;20054;-64
2022/09/07 05:43:43;;;;;;;9.35;4.28;;;;;;;19.53;100.00;98479.91;4994429;28;20053;-61
2022/09/07 05:46:09;;;;;;;6.38;3.45;;;;;;;19.58;100.00;98486.19;5018296;28;20475;-62
2022/09/07 05:48:35;;;;;;;7.20;3.60;;;;;;;19.55;100.00;98491.06;5010862;28;20136;-60
2022/09/07 05:51:00;;;;;;;7.03;4.28;;;;;;;19.40;100.00;98464.91;5020340;28;20320;-62
2022/09/07 05:53:26;;;;;;;8.30;4.28;;;;;;;19.60;100.00;98507.06;4988133;28;20034;-60
2022/09/07 05:55:51;;;;;;;5.80;3.90;;;;;;;19.50;100.00;98488.25;5009995;28;20064;-62
2022/09/07 05:58:17;;;;;;;7.45;4.00;;;;;;;19.62;100.00;98512.16;4986986;28;20112;-60
2022/09/07 06:00:44;;;;;;;5.53;3.70;;;;;;;19.56;100.00;98498.75;5037379;28;20029;-62
2022/09/07 06:03:09;;;;;;;7.00;4.18;;;;;;;19.57;100.00;98499.59;5004158;28;20041;-62
2022/09/07 06:05:35;;;;;;;7.88;4.25;;;;;;;19.65;100.00;98511.75;5012106;28;20032;-61
2022/09/07 06:08:00;;;;;;;6.05;3.90;;;;;;;19.62;100.00;98512.16;4990597;28;20113;-59
2022/09/07 06:10:26;;;;;;;9.13;3.70;;;;;;;19.70;100.00;98515.38;4994638;28;20555;-62
2022/09/07 06:12:52;;;;;;;7.07;4.03;;;;;;;19.68;100.00;98516.63;4956743;28;21430;-63
2022/09/07 06:15:18;;;;;;;8.15;3.75;;;;;;;19.68;100.00;98513.97;5005121;28;20080;-60
2022/09/07 06:17:43;;;;;;;7.47;4.15;;;;;;;19.76;100.00;98511.94;5025538;28;20132;-63
2022/09/07 06:20:09;;;;;;;6.60;3.58;;;;;;;19.78;100.00;98517.81;5025393;28;20036;-61
2022/09/07 06:22:38;;;;;;;6.45;3.75;;;;;;;19.79;100.00;98516.00;5013320;28;20809;-61
2022/09/07 06:25:04;;;;;;;8.05;3.67;;;;;;;19.85;100.00;98532.84;4995002;28;20045;-62
2022/09/07 06:27:29;;;;;;;6.28;3.60;;;;;;;19.84;100.00;98531.19;5025243;28;20128;-65
2022/09/07 06:29:55;;;;;;;6.35;3.55;;;;;;;19.82;100.00;98535.88;4993926;28;20477;-62
2022/09/07 06:32:20;;;;;;;8.02;4.30;;;;;;;19.70;100.00;98522.50;4993026;28;20588;-62
2022/09/07 06:34:46;;;;;;;8.10;3.78;;;;;;;19.62;100.00;98517.41;5028395;28;20044;-62
2022/09/07 06:37:11;;;;;;;7.20;4.15;;;;;;;19.82;100.00;98547.22;5010629;28;20412;-61
2022/09/07 06:39:36;;;;;;;6.20;3.63;;;;;;;19.85;100.00;98551.31;5007537;28;20084;-65
2022/09/07 06:42:05;;;;;;;6.47;3.65;;;;;;;19.80;100.00;98543.19;5015191;28;20043;-62
2022/09/07 06:44:30;;;;;;;6.28;3.67;;;;;;;19.71;100.00;98532.00;5014086;28;20557;-62
2022/09/07 06:46:56;;;;;;;5.68;3.30;;;;;;;19.90;99.76;98562.06;5018458;28;20101;-60
2022/09/07 06:49:24;;;;;;;9.50;3.47;;;;;;;19.94;99.40;98565.91;5011012;28;20088;-63
2022/09/07 06:51:50;;;;;;;5.80;3.70;;;;;;;20.00;99.42;98569.53;4998244;28;20034;-62
2022/09/07 06:54:16;;;;;;;6.65;3.50;;;;;;;19.90;98.94;98538.31;5012254;28;20041;-61
2022/09/07 06:56:41;;;;;;;6.57;3.50;;;;;;;20.07;97.63;98570.34;5004823;28;20035;-64
2022/09/07 06:59:06;;;;;;;6.72;3.42;;;;;;;20.10;97.70;98562.00;5006448;28;20036;-62
2022/09/07 07:01:32;;;;;;;8.32;3.78;;;;;;;20.16;98.74;98572.53;5006417;28;20148;-61
2022/09/07 07:03:58;;;;;;;10.77;4.60;;;;;;;20.24;99.27;98568.84;5020027;28;20383;-60
2022/09/07 07:06:36;;;;;;;5.78;3.60;;;;;;;20.27;99.07;98576.38;4997678;28;20055;-63
2022/09/07 07:09:06;;;;;;;7.75;3.60;;;;;;;20.29;97.91;98584.88;5000726;28;20060;-62
2022/09/07 07:11:31;;;;;;;6.43;3.30;;;;;;;20.29;97.25;98595.44;5006488;28;20030;-62
2022/09/07 07:13:57;;;;;;;6.47;3.50;;;;;;;20.30;95.99;98583.88;5041551;28;20080;-62
2022/09/07 07:16:23;;;;;;;6.65;3.72;;;;;;;20.35;95.34;98577.94;5010418;28;20105;-61
2022/09/07 07:18:51;;;;;;;7.55;3.25;;;;;;;20.11;95.09;98539.88;5005100;28;20021;-63
2022/09/07 07:21:17;;;;;;;8.48;3.85;;;;;;;20.35;96.55;98589.34;5032508;28;20033;-60
2022/09/07 07:23:43;;;;;;;7.13;3.70;;;;;;;20.40;96.07;98586.06;4993847;28;20029;-60
2022/09/07 07:26:14;;;;;;;8.57;3.42;;;;;;;20.42;96.75;98601.69;5007517;28;20030;-61
2022/09/07 07:28:47;;;;;;;8.57;3.72;;;;;;;20.47;96.19;98599.25;5024651;28;20045;-62
2022/09/07 07:31:14;;;;;;;7.50;3.72;;;;;;;20.31;95.92;98582.84;4947726;28;20038;-62
2022/09/07 07:33:40;;;;;;;7.20;3.30;;;;;;;20.49;95.37;98619.13;5009692;28;20029;-60
2022/09/07 07:36:16;;;;;;;7.55;3.40;;;;;;;20.55;96.58;98610.41;5000125;28;20735;-59
2022/09/07 07:38:43;;;;;;;8.45;3.53;;;;;;;20.34;95.11;98574.50;5000096;28;20025;-63
2022/09/07 07:41:09;;;;;;;7.25;3.63;;;;;;;20.34;96.17;98579.00;5026260;28;20080;-61
2022/09/07 07:43:35;;;;;;;6.85;3.38;;;;;;;20.58;96.69;98595.16;5011920;28;20120;-59
2022/09/07 07:46:00;;;;;;;7.40;3.97;;;;;;;20.52;97.49;98587.03;5007184;28;20034;-59
2022/09/07 07:48:26;;;;;;;7.35;4.05;;;;;;;20.64;96.31;98594.34;5016908;28;20111;-62
2022/09/07 07:51:02;;;;;;;9.18;3.50;;;;;;;20.72;96.06;98602.03;4989877;28;20037;-63
2022/09/07 07:53:30;;;;;;;5.88;3.50;;;;;;;20.66;94.26;98602.84;5008945;28;20041;-61
2022/09/07 07:56:00;;;;;;;7.53;3.90;;;;;;;20.61;94.54;98605.31;5005683;28;20666;-59
2022/09/07 07:58:26;;;;;;;6.90;3.72;;;;;;;20.51;95.97;98601.25;5025604;28;20508;-63
2022/09/07 08:00:53;;;;;;;10.82;3.78;;;;;;;20.51;94.74;98606.53;5008049;28;20068;-60
2022/09/07 08:03:22;;;;;;;6.50;3.78;;;;;;;20.43;93.99;98617.34;5002978;28;20022;-62
2022/09/07 08:05:48;;;;;;;7.53;4.10;;;;;;;20.44;95.24;98607.59;5012598;28;20059;-61
2022/09/07 08:08:14;;;;;;;7.20;4.38;;;;;;;20.54;95.05;98600.84;5018532;28;20037;-62
2022/09/07 08:10:39;;;;;;;5.65;3.60;;;;;;;20.60;94.98;98603.69;5014638;28;20044;-60
2022/09/07 08:13:05;;;;;;;5.65;3.40;;;;;;;20.65;93.90;98615.25;5012314;28;20499;-61
2022/09/07 08:15:30;;;;;;;5.50;3.67;;;;;;;20.60;93.74;98609.75;5011564;28;20166;-59
2022/09/07 08:17:56;;;;;;;6.35;3.40;;;;;;;20.66;92.75;98608.97;5005376;28;20033;-61
2022/09/07 08:20:22;;;;;;;5.38;3.28;;;;;;;20.63;92.91;98604.09;5042267;28;20036;-61
2022/09/07 08:22:50;;;;;;;7.60;3.97;;;;;;;20.77;93.97;98596.91;4936425;28;20636;-62
2022/09/07 08:25:16;;;;;;;8.13;3.85;;;;;;;20.78;94.10;98592.44;5005619;28;20010;-59
2022/09/07 08:27:42;;;;;;;8.80;3.90;;;;;;;20.76;94.49;98600.59;5012605;28;20503;-64
2022/09/07 08:30:09;;;;;;;9.18;3.72;;;;;;;20.67;94.63;98607.13;5001041;28;20138;-60
2022/09/07 08:32:35;;;;;;;8.82;3.70;;;;;;;20.63;93.51;98606.75;4999683;28;20041;-60
2022/09/07 08:35:01;;;;;;;6.15;3.60;;;;;;;20.56;92.23;98592.72;5025884;28;20040;-60
2022/09/07 08:55:35;;;;;;;6.90;4.07;;;;;;;20.77;94.04;98588.19;5089934;27;20901;-63
2022/09/07 08:58:18;;;;;;;6.32;3.45;;;;;;;20.91;93.30;98595.81;5071452;28;20047;-60
2022/09/07 09:00:44;;;;;;;8.02;4.60;;;;;;;21.00;92.82;98599.03;5075378;28;20059;-63
2022/09/07 09:03:32;;;;;;;9.23;4.40;;;;;;;20.85;92.93;98569.44;5020108;27;20308;-61
2022/09/07 09:06:34;;;;;;;6.88;3.90;;;;;;;21.01;93.10;98602.47;5090900;28;20032;-60
2022/09/07 09:09:12;;;;;;;8.05;3.88;;;;;;;20.85;90.97;98570.25;5086362;28;20415;-60
2022/09/07 09:11:59;;;;;;;8.32;3.47;;;;;;;21.00;93.07;98604.31;5089124;28;20028;-62
2022/09/07 09:14:52;;;;;;;5.95;3.55;;;;;;;21.00;92.53;98592.94;5090279;28;20028;-60
2022/09/07 09:17:26;;;;;;;8.07;3.45;;;;;;;21.17;92.74;98593.22;5123995;27;20658;-60
2022/09/07 09:20:13;;;;;;;7.18;3.70;;;;;;;21.00;93.99;98551.44;5089430;28;20036;-61
2022/09/07 09:22:40;;;;;;;7.20;3.50;;;;;;;21.20;93.20;98583.03;5076439;28;20757;-62
2022/09/07 09:25:11;;;;;;;5.80;3.70;;;;;;;21.21;93.47;98586.47;5054625;28;20059;-60
2022/09/07 09:27:36;;;;;;;5.82;3.60;;;;;;;21.22;93.86;98580.97;5092357;28;20031;-63
2022/09/07 09:30:13;;;;;;;7.70;3.42;;;;;;;21.20;93.17;98580.41;5073926;28;20028;-60
2022/09/07 09:32:41;;;;;;;6.60;3.42;;;;;;;21.18;91.59;98589.56;5079441;28;20069;-59
2022/09/07 09:35:33;;;;;;;7.22;3.33;;;;;;;21.26;90.38;98579.53;5075577;28;20035;-61
2022/09/07 09:37:58;;;;;;;8.32;3.38;;;;;;;21.20;88.68;98574.31;5096204;28;20094;-60
2022/09/07 09:40:25;;;;;;;6.05;3.38;;;;;;;21.35;88.05;98576.63;5086110;28;20036;-63
2022/09/07 09:43:19;;;;;;;7.57;3.63;;;;;;;21.38;88.68;98573.56;5075839;27;20038;-61
2022/09/07 09:45:47;;;;;;;6.40;3.55;;;;;;;21.09;88.62;98539.59;5091069;28;20024;-63
2022/09/07 09:48:19;;;;;;;6.80;3.35;;;;;;;21.49;88.59;98565.75;5089305;28;20032;-61
2022/09/07 09:50:51;;;;;;;5.60;3.28;;;;;;;21.57;88.85;98569.97;5082818;28;20027;-61
2022/09/07 09:53:29;;;;;;;6.50;3.72;;;;;;;21.46;89.17;98566.19;5093787;28;20068;-61
2022/09/07 09:55:54;;;;;;;5.97;3.10;;;;;;;21.52;88.81;98575.13;5090085;28;20031;-60
2022/09/07 09:58:30;;;;;;;5.95;3.47;;;;;;;21.56;87.49;98575.47;5077140;28;20051;-60
2022/09/07 10:00:57;;;;;;;7.60;3.40;;;;;;;21.52;87.48;98577.75;5085102;28;20058;-60
2022/09/07 10:03:25;;;;;;;7.43;3.65;;;;;;;21.37;87.73;98530.41;5019688;27;20055;-62
2022/09/07 10:05:52;;;;;;;6.53;3.38;;;;;;;21.69;86.38;98567.44;5059832;28;20097;-59
2022/09/07 10:08:27;;;;;;;5.63;3.25;;;;;;;21.65;86.08;98575.00;5071413;28;20028;-61
2022/09/07 10:10:59;;;;;;;6.72;3.60;;;;;;;21.64;87.64;98567.25;5061654;28;20050;-60
2022/09/07 10:13:30;;;;;;;8.15;3.30;;;;;;;21.57;88.33;98546.16;5066338;28;20098;-62
2022/09/07 10:15:58;;;;;;;7.43;3.53;;;;;;;21.70;87.11;98553.16;5081130;28;20032;-60
2022/09/07 10:18:57;;;;;;;7.05;3.65;;;;;;;21.72;87.86;98558.22;5051295;28;20534;-61
2022/09/07 10:21:23;;;;;;;;;;;;;;;21.91;88.54;98557.22;5067840;28;20020;-62
2022/09/07 10:23:56;;;;;;;8.77;3.50;;;;;;;21.94;87.44;98546.22;5033388;27;20426;-60
2022/09/07 10:26:34;;;;;;;6.70;3.38;;;;;;;22.03;86.71;98542.25;5050206;28;20062;-61
2022/09/07 10:29:18;;;;;;;5.93;3.10;;;;;;;22.12;86.95;98528.69;5065846;28;20097;-59
2022/09/07 10:31:56;;;;;;;6.15;3.47;;;;;;;22.23;87.32;98541.19;5071342;28;20033;-61
2022/09/07 10:34:43;;;;;;;6.63;3.17;;;;;;;22.20;86.48;98534.50;5069693;28;20036;-58
2022/09/07 10:37:10;;;;;;;6.97;3.50;;;;;;;22.27;87.36;98524.69;5072609;28;20052;-60
2022/09/07 10:39:53;;;;;;;6.38;3.45;;;;;;;22.09;85.84;98487.59;5089571;27;20036;-59
2022/09/07 10:42:27;;;;;;;5.93;3.42;;;;;;;22.32;84.47;98516.06;5010082;28;20031;-61
2022/09/07 10:45:08;;;;;;;6.53;3.70;;;;;;;22.21;85.17;98483.16;5089091;27;20036;-63
2022/09/07 10:47:36;;;;;;;5.47;2.97;;;;;;;22.53;82.46;98509.47;5067806;28;20031;-59
2022/09/07 10:50:07;;;;;;;6.40;3.45;;;;;;;22.48;82.76;98497.94;5070626;28;20613;-60
2022/09/07 10:52:32;;;;;;;7.22;2.92;;;;;;;22.61;82.20;98503.84;5059281;28;20034;-60
2022/09/07 10:55:00;;;;;;;5.22;2.78;;;;;;;22.68;79.97;98506.41;5072403;28;20032;-61
2022/09/07 10:57:32;;;;;;;7.20;3.10;;;;;;;22.72;79.81;98498.81;5056338;28;20036;-59
2022/09/07 11:00:10;;;;;;;5.40;2.97;;;;;;;22.78;81.30;98504.03;5070673;28;20394;-60
2022/09/07 11:03:22;;;;;;;7.15;3.33;;;;;;;22.83;79.28;98488.25;4978911;28;20048;-60
2022/09/07 11:06:06;;;;;;;7.32;3.35;;;;;;;22.72;78.78;98494.31;5042094;28;20516;-59
2022/09/07 11:09:11;;;;;;;7.65;3.30;;;;;;;22.74;80.27;98486.16;5043180;28;20045;-62
2022/09/07 11:11:36;;;;;;;7.28;3.20;;;;;;;22.79;80.15;98484.44;5084024;27;20252;-59
2022/09/07 11:14:06;;;;;;;5.80;3.08;;;;;;;22.58;81.47;98445.19;5074637;28;20512;-60
2022/09/07 11:16:32;;;;;;;;;;;;;;;22.81;80.50;98478.91;5062773;28;20047;-61
2022/09/07 11:19:16;;;;;;;5.72;3.20;;;;;;;22.96;79.87;98473.16;5075166;28;20010;-60
2022/09/07 11:22:06;;;;;;;6.30;2.78;;;;;;;22.95;78.05;98482.19;5044212;28;20029;-61
2022/09/07 11:24:32;;;;;;;5.80;3.10;;;;;;;22.86;79.22;98479.03;5048572;28;20286;-61
2022/09/07 11:27:10;;;;;;;6.00;2.70;;;;;;;22.94;78.27;98480.53;5087740;28;20027;-60
2022/09/07 11:29:43;;;;;;;5.70;3.10;;;;;;;22.86;78.92;98478.25;5055790;28;20448;-59
2022/09/07 11:32:14;;;;;;;5.85;3.22;;;;;;;22.93;78.81;98468.34;5060601;28;20038;-62
2022/09/07 11:34:40;;;;;;;5.70;3.35;;;;;;;22.87;78.79;98470.03;5074128;28;20026;-58
2022/09/07 11:37:09;;;;;;;5.55;3.10;;;;;;;22.89;80.22;98462.69;5054358;28;20036;-60
2022/09/07 11:39:39;;;;;;;5.65;3.10;;;;;;;23.01;79.70;98470.66;5070879;28;20079;-59
2022/09/07 11:42:33;;;;;;;6.38;2.92;;;;;;;22.97;75.91;98459.69;5097437;27;20099;-58
2022/09/07 11:45:11;;;;;;;5.50;2.90;;;;;;;23.04;76.78;98470.22;5077988;28;20101;-61
2022/09/07 11:47:40;;;;;;;5.07;2.75;;;;;;;23.23;75.76;98466.41;5075003;28;20245;-59
2022/09/07 11:50:15;;;;;;;5.70;2.90;;;;;;;23.33;74.32;98468.50;5071625;28;20035;-58
2022/09/07 11:52:43;;;;;;;6.63;2.85;;;;;;;23.34;74.49;98461.34;5072544;28;20031;-60
2022/09/07 11:55:22;;;;;;;7.93;2.83;;;;;;;23.36;73.87;98465.38;5062473;28;20031;-60
2022/09/07 11:58:12;;;;;;;5.15;2.30;;;;;;;23.45;72.30;98459.72;5074970;28;20024;-58
2022/09/07 12:01:02;;;;;;;5.75;2.88;;;;;;;23.39;73.84;98453.50;5066686;28;20047;-61
2022/09/07 12:03:43;;;;;;;5.78;2.83;;;;;;;23.17;73.88;98418.81;5070364;28;20078;-59